Time;durP1;ratioP1;P1;durP2;ratioP2;P2;SDS_P1;SDS_P2;PMS_P1;PMS_P2;Temp;Humidity;BMP_temperature;BMP_pressure;BME280_temperature;BME280_humidity;BME280_pressure;Samples;Min_cycle;Max_cycle;Signal;HPM_P1;HPM_P2
2022/06/12 00:00:42;;;;;;;27.33;13.57;;;;;;;;;;5094340;28;20481;-74
2022/06/12 00:03:11;;;;;;;25.10;13.53;;;;;;;;;;5093941;28;20819;-74
2022/06/12 00:05:40;;;;;;;31.07;14.30;;;;;;;;;;5094034;28;20434;-74
2022/06/12 00:08:08;;;;;;;34.70;15.60;;;;;;;;;;5094100;28;20477;-74
2022/06/12 00:10:38;;;;;;;32.27;13.80;;;;;;;;;;5093949;28;20467;-75
2022/06/12 00:13:06;;;;;;;30.87;16.53;;;;;;;;;;5093751;28;20460;-74
2022/06/12 00:15:34;;;;;;;31.67;15.00;;;;;;;;;;5094060;28;20446;-75
2022/06/12 00:18:03;;;;;;;29.53;14.20;;;;;;;;;;5093882;28;20464;-75
2022/06/12 00:20:31;;;;;;;35.60;15.20;;;;;;;;;;5093661;28;20481;-74
2022/06/12 00:22:58;;;;;;;32.40;14.40;;;;;;;;;;5093683;28;20441;-75
2022/06/12 00:25:28;;;;;;;28.10;13.60;;;;;;;;;;5093964;28;20442;-74
2022/06/12 00:27:58;;;;;;;29.17;14.97;;;;;;;;;;5093874;28;20449;-75
2022/06/12 00:30:26;;;;;;;27.50;13.67;;;;;;;;;;5093628;28;20446;-75
2022/06/12 00:32:54;;;;;;;29.63;15.83;;;;;;;;;;5092688;28;20831;-74
2022/06/12 00:35:23;;;;;;;32.20;15.33;;;;;;;;;;5093176;28;20438;-74
2022/06/12 00:37:50;;;;;;;35.80;15.17;;;;;;;;;;5093399;28;20495;-74
2022/06/12 00:40:18;;;;;;;30.43;15.07;;;;;;;;;;5093687;28;20474;-75
2022/06/12 00:42:46;;;;;;;31.10;15.03;;;;;;;;;;5093387;28;20467;-74
2022/06/12 00:45:38;;;;;;;30.97;15.30;;;;;;;;;;5093058;28;20442;-74
2022/06/12 00:48:06;;;;;;;32.10;14.13;;;;;;;;;;5092905;28;20485;-74
2022/06/12 00:50:34;;;;;;;26.43;13.07;;;;;;;;;;5093398;28;20441;-74
2022/06/12 00:53:02;;;;;;;24.73;12.30;;;;;;;;;;5093140;28;20442;-74
2022/06/12 00:55:32;;;;;;;28.60;13.90;;;;;;;;;;5093239;28;20438;-75
2022/06/12 00:58:03;;;;;;;27.63;14.67;;;;;;;;;;5092965;28;20515;-75
2022/06/12 01:00:32;;;;;;;27.43;12.13;;;;;;;;;;5092890;28;20923;-74
2022/06/12 01:03:02;;;;;;;28.17;13.77;;;;;;;;;;5093213;28;20638;-75
2022/06/12 01:08:15;;;;;;;26.13;12.70;;;;;;;;;;5093019;28;20437;-75
2022/06/12 01:10:44;;;;;;;27.43;13.57;;;;;;;;;;5092950;28;20450;-74
2022/06/12 01:13:14;;;;;;;26.63;13.03;;;;;;;;;;5092513;28;20434;-74
2022/06/12 01:15:43;;;;;;;25.23;12.57;;;;;;;;;;5092682;28;20448;-75
2022/06/12 01:18:14;;;;;;;27.37;13.23;;;;;;;;;;5092651;28;20442;-75
2022/06/12 01:20:45;;;;;;;22.60;11.53;;;;;;;;;;5092734;28;20474;-74
2022/06/12 01:23:27;;;;;;;24.90;13.00;;;;;;;;;;5092511;28;20438;-75
2022/06/12 01:26:17;;;;;;;25.97;12.93;;;;;;;;;;5089677;28;20454;-75
2022/06/12 01:28:47;;;;;;;21.87;11.20;;;;;;;;;;5092686;28;20434;-75
2022/06/12 01:31:26;;;;;;;26.30;11.53;;;;;;;;;;5092234;28;20442;-74
2022/06/12 01:33:58;;;;;;;23.87;12.60;;;;;;;;;;5092301;28;20958;-75
2022/06/12 01:36:27;;;;;;;26.07;12.80;;;;;;;;;;5092530;28;20446;-75
2022/06/12 01:38:58;;;;;;;29.37;13.73;;;;;;;;;;5092234;28;20448;-75
2022/06/12 01:41:29;;;;;;;27.37;14.40;;;;;;;;;;5092490;28;20468;-74
2022/06/12 01:44:01;;;;;;;30.40;15.07;;;;;;;;;;5092375;28;20438;-74
2022/06/12 01:46:32;;;;;;;25.87;14.17;;;;;;;;;;5092200;28;20823;-75
2022/06/12 01:49:04;;;;;;;31.87;15.70;;;;;;;;;;5091589;28;20458;-75
2022/06/12 01:51:34;;;;;;;30.17;14.30;;;;;;;;;;5092315;28;20537;-75
2022/06/12 01:54:05;;;;;;;30.97;14.90;;;;;;;;;;5092165;28;20525;-74
2022/06/12 01:56:38;;;;;;;27.47;15.50;;;;;;;;;;5092154;28;20453;-74
2022/06/12 01:59:10;;;;;;;33.17;15.53;;;;;;;;;;5091445;28;20477;-74
2022/06/12 02:01:40;;;;;;;28.50;15.03;;;;;;;;;;5092088;28;20545;-75
2022/06/12 02:04:11;;;;;;;31.37;15.70;;;;;;;;;;5091819;28;20445;-74
2022/06/12 02:06:40;;;;;;;30.90;15.80;;;;;;;;;;5091744;28;20442;-74
2022/06/12 02:09:10;;;;;;;31.60;14.50;;;;;;;;;;5091498;28;20434;-74
2022/06/12 02:14:29;;;;;;;32.97;14.00;;;;;;;;;;5091866;28;20482;-74
2022/06/12 02:16:59;;;;;;;28.67;15.70;;;;;;;;;;5091592;28;20453;-75
2022/06/12 02:19:29;;;;;;;30.00;14.97;;;;;;;;;;5091503;28;20526;-75
2022/06/12 02:22:00;;;;;;;32.10;13.90;;;;;;;;;;5091469;28;20446;-75
2022/06/12 02:24:29;;;;;;;31.57;14.70;;;;;;;;;;5091669;28;20446;-75
2022/06/12 02:27:00;;;;;;;27.93;12.97;;;;;;;;;;5091516;28;20450;-75
2022/06/12 02:29:30;;;;;;;27.90;14.33;;;;;;;;;;5091382;28;20517;-75
2022/06/12 02:31:59;;;;;;;31.93;15.13;;;;;;;;;;5091411;28;20460;-75
2022/06/12 02:34:28;;;;;;;27.10;14.13;;;;;;;;;;5091244;28;20943;-75
2022/06/12 02:36:57;;;;;;;29.30;14.40;;;;;;;;;;5091437;28;20822;-75
2022/06/12 02:39:26;;;;;;;31.00;14.00;;;;;;;;;;5091040;28;20530;-75
2022/06/12 02:41:55;;;;;;;27.70;12.73;;;;;;;;;;5091270;28;20442;-74
2022/06/12 02:44:24;;;;;;;29.83;14.00;;;;;;;;;;5091114;28;20441;-75
2022/06/12 02:46:56;;;;;;;30.47;15.80;;;;;;;;;;5091534;28;20438;-75
2022/06/12 02:49:24;;;;;;;34.70;15.70;;;;;;;;;;5090473;28;20466;-75
2022/06/12 02:51:55;;;;;;;28.37;13.73;;;;;;;;;;5091028;28;20452;-75
2022/06/12 02:54:29;;;;;;;28.40;14.40;;;;;;;;;;5091161;28;20442;-75
2022/06/12 02:57:00;;;;;;;25.77;14.33;;;;;;;;;;5091052;28;20472;-75
2022/06/12 02:59:31;;;;;;;30.73;14.47;;;;;;;;;;5090957;28;20442;-75
2022/06/12 03:02:06;;;;;;;27.67;15.57;;;;;;;;;;5091239;28;20443;-75
2022/06/12 03:04:38;;;;;;;31.27;15.53;;;;;;;;;;5091185;28;20448;-74
2022/06/12 03:07:06;;;;;;;30.40;15.37;;;;;;;;;;5090840;28;20446;-75
2022/06/12 03:09:34;;;;;;;32.20;15.17;;;;;;;;;;5090868;28;20442;-74
2022/06/12 03:12:01;;;;;;;29.80;15.53;;;;;;;;;;5090828;28;20521;-75
2022/06/12 03:14:28;;;;;;;30.73;15.30;;;;;;;;;;5091174;28;20444;-75
2022/06/12 03:16:56;;;;;;;35.13;15.03;;;;;;;;;;5090722;28;20450;-75
2022/06/12 03:19:26;;;;;;;33.67;15.70;;;;;;;;;;5090566;28;20446;-75
2022/06/12 03:22:00;;;;;;;28.33;13.63;;;;;;;;;;5090849;28;20446;-75
2022/06/12 03:24:36;;;;;;;29.30;14.30;;;;;;;;;;5090685;28;20441;-75
2022/06/12 03:27:11;;;;;;;32.00;16.33;;;;;;;;;;5090734;28;20441;-74
2022/06/12 03:29:42;;;;;;;28.37;12.67;;;;;;;;;;5090844;28;20434;-75
2022/06/12 03:32:13;;;;;;;26.63;12.23;;;;;;;;;;5091102;28;20465;-75
2022/06/12 03:34:45;;;;;;;27.30;13.57;;;;;;;;;;5090751;28;20456;-75
2022/06/12 03:37:15;;;;;;;34.90;15.03;;;;;;;;;;5090657;28;20438;-74
2022/06/12 03:39:45;;;;;;;28.23;15.53;;;;;;;;;;5090564;28;20503;-75
2022/06/12 03:42:18;;;;;;;28.47;14.17;;;;;;;;;;5090561;28;20442;-75
2022/06/12 03:44:48;;;;;;;31.70;15.83;;;;;;;;;;5090684;28;20442;-75
2022/06/12 03:47:17;;;;;;;32.23;15.40;;;;;;;;;;5090331;28;20445;-75
2022/06/12 03:49:50;;;;;;;31.20;14.03;;;;;;;;;;5090327;28;20446;-75
2022/06/12 03:52:22;;;;;;;26.50;14.57;;;;;;;;;;5090559;28;20966;-75
2022/06/12 03:54:54;;;;;;;25.97;14.60;;;;;;;;;;5090478;28;20431;-75
2022/06/12 04:00:13;;;;;;;25.73;13.07;;;;;;;;;;5090561;28;20473;-74
2022/06/12 04:02:40;;;;;;;24.90;13.00;;;;;;;;;;5090624;28;20537;-75
2022/06/12 04:05:11;;;;;;;24.37;13.27;;;;;;;;;;5090324;28;20831;-75
2022/06/12 04:07:44;;;;;;;27.83;12.70;;;;;;;;;;5091749;28;20449;-75
2022/06/12 04:10:12;;;;;;;26.27;13.43;;;;;;;;;;5093993;28;20444;-75
2022/06/12 04:12:40;;;;;;;29.77;14.73;;;;;;;;;;5094003;28;20442;-75
2022/06/12 04:15:10;;;;;;;25.10;12.80;;;;;;;;;;5093900;28;20434;-76
2022/06/12 04:17:37;;;;;;;27.53;13.07;;;;;;;;;;5093831;28;20446;-75
2022/06/12 04:20:05;;;;;;;31.87;12.87;;;;;;;;;;5093836;28;20475;-75
2022/06/12 04:22:39;;;;;;;26.50;12.27;;;;;;;;;;5093782;28;20846;-75
2022/06/12 04:25:09;;;;;;;26.60;12.60;;;;;;;;;;5093800;28;20448;-75
2022/06/12 04:27:39;;;;;;;24.10;12.00;;;;;;;;;;5093938;28;20448;-75
2022/06/12 04:30:08;;;;;;;23.40;12.73;;;;;;;;;;5093669;28;20955;-75
2022/06/12 04:32:35;;;;;;;24.77;13.00;;;;;;;;;;5093595;28;20809;-75
2022/06/12 04:35:03;;;;;;;23.20;12.80;;;;;;;;;;5093346;28;20442;-75
2022/06/12 04:37:32;;;;;;;26.17;12.70;;;;;;;;;;5093451;28;20440;-75
2022/06/12 04:40:02;;;;;;;22.27;12.63;;;;;;;;;;5093351;28;20438;-75
2022/06/12 04:42:31;;;;;;;31.37;12.50;;;;;;;;;;5093448;28;20970;-75
2022/06/12 04:45:00;;;;;;;28.10;13.70;;;;;;;;;;5093330;28;20445;-75
2022/06/12 04:47:29;;;;;;;26.40;12.17;;;;;;;;;;5092831;28;20446;-75
2022/06/12 04:49:57;;;;;;;25.73;11.67;;;;;;;;;;5093041;28;20443;-75
2022/06/12 04:52:25;;;;;;;30.80;13.40;;;;;;;;;;5093409;28;20438;-75
2022/06/12 04:54:53;;;;;;;27.90;11.70;;;;;;;;;;5093379;28;20442;-75
2022/06/12 04:57:23;;;;;;;24.27;13.57;;;;;;;;;;5092595;28;20461;-75
2022/06/12 04:59:51;;;;;;;26.10;12.00;;;;;;;;;;5093068;28;20438;-75
2022/06/12 05:02:18;;;;;;;26.17;13.00;;;;;;;;;;5092779;28;20482;-75
2022/06/12 05:04:46;;;;;;;27.43;14.20;;;;;;;;;;5093056;28;20442;-75
2022/06/12 05:07:14;;;;;;;30.70;16.03;;;;;;;;;;5092633;28;20935;-75
2022/06/12 05:09:42;;;;;;;25.50;14.30;;;;;;;;;;5092916;28;20430;-75
2022/06/12 05:12:12;;;;;;;25.63;14.30;;;;;;;;;;5092767;28;20820;-75
2022/06/12 05:14:41;;;;;;;27.20;14.53;;;;;;;;;;5092596;28;20438;-75
2022/06/12 05:17:12;;;;;;;29.47;13.80;;;;;;;;;;5092277;28;20446;-75
2022/06/12 05:19:41;;;;;;;27.17;13.47;;;;;;;;;;5092504;28;20808;-75
2022/06/12 05:22:09;;;;;;;31.23;16.60;;;;;;;;;;5092773;28;20478;-75
2022/06/12 05:24:37;;;;;;;30.00;15.00;;;;;;;;;;5092514;28;20946;-75
2022/06/12 05:27:06;;;;;;;28.10;14.43;;;;;;;;;;5091898;28;20489;-75
2022/06/12 05:29:35;;;;;;;31.13;15.60;;;;;;;;;;5092780;28;20446;-75
2022/06/12 05:32:05;;;;;;;28.07;16.27;;;;;;;;;;5092510;28;20438;-75
2022/06/12 05:34:33;;;;;;;28.20;16.80;;;;;;;;;;5092493;28;20452;-75
2022/06/12 05:37:01;;;;;;;29.70;14.87;;;;;;;;;;5092242;28;20461;-75
2022/06/12 05:39:29;;;;;;;30.10;15.17;;;;;;;;;;5092309;28;20442;-75
2022/06/12 05:41:56;;;;;;;33.03;15.80;;;;;;;;;;5087750;28;20559;-74
2022/06/12 05:44:24;;;;;;;29.17;14.90;;;;;;;;;;5078760;28;20475;-74
2022/06/12 05:46:51;;;;;;;28.03;15.63;;;;;;;;;;5079010;28;20522;-74
2022/06/12 05:49:20;;;;;;;34.03;16.00;;;;;;;;;;5082453;28;20471;-74
2022/06/12 05:51:48;;;;;;;27.13;14.77;;;;;;;;;;5083432;28;20485;-75
2022/06/12 05:54:15;;;;;;;25.37;14.23;;;;;;;;;;5083495;28;20474;-73
2022/06/12 05:56:43;;;;;;;30.83;15.10;;;;;;;;;;5079058;28;20585;-73
2022/06/12 05:59:11;;;;;;;28.83;15.27;;;;;;;;;;5091406;28;20489;-75
2022/06/12 06:01:39;;;;;;;30.30;15.53;;;;;;;;;;5091291;28;20569;-75
2022/06/12 06:04:07;;;;;;;35.50;14.53;;;;;;;;;;5091223;28;20899;-75
2022/06/12 06:06:37;;;;;;;27.40;14.53;;;;;;;;;;5091098;28;20926;-75
2022/06/12 06:09:08;;;;;;;30.07;13.67;;;;;;;;;;5090879;28;20465;-73
2022/06/12 06:11:35;;;;;;;29.43;14.10;;;;;;;;;;5090876;28;20555;-71
2022/06/12 06:14:03;;;;;;;29.43;13.20;;;;;;;;;;5091087;28;20469;-72
2022/06/12 06:16:33;;;;;;;27.60;14.33;;;;;;;;;;5090943;28;21027;-72
2022/06/12 06:19:00;;;;;;;28.57;14.60;;;;;;;;;;5090869;28;20464;-73
2022/06/12 06:21:28;;;;;;;26.57;14.70;;;;;;;;;;5090859;28;21123;-73
2022/06/12 06:23:57;;;;;;;26.07;13.90;;;;;;;;;;5090409;28;20498;-73
2022/06/12 06:26:25;;;;;;;24.67;14.10;;;;;;;;;;5085187;28;20844;-72
2022/06/12 06:28:56;;;;;;;28.60;14.43;;;;;;;;;;5070490;28;20482;-72
2022/06/12 06:42:26;;;;;;;28.10;13.97;;;;;;;;;;5107352;27;20630;-73
2022/06/12 06:47:38;;;;;;;26.13;12.80;;;;;;;;;;5107824;28;20530;-74
2022/06/12 06:50:07;;;;;;;23.93;12.63;;;;;;;;;;5107564;28;20869;-73
2022/06/12 06:52:34;;;;;;;23.20;12.23;;;;;;;;;;5107928;28;20479;-74
2022/06/12 06:55:02;;;;;;;21.90;11.60;;;;;;;;;;5108030;28;20898;-73
2022/06/12 06:57:32;;;;;;;27.60;12.50;;;;;;;;;;5107455;28;20528;-72
2022/06/12 07:00:00;;;;;;;27.83;14.13;;;;;;;;;;5106972;28;20478;-74
2022/06/12 07:02:27;;;;;;;25.20;13.30;;;;;;;;;;5107544;28;20477;-75
2022/06/12 07:04:55;;;;;;;23.90;11.03;;;;;;;;;;5107752;28;20470;-74
2022/06/12 07:07:22;;;;;;;24.30;11.30;;;;;;;;;;5107608;28;20474;-74
2022/06/12 07:09:50;;;;;;;20.30;10.87;;;;;;;;;;5107541;28;20847;-75
2022/06/12 07:12:17;;;;;;;27.63;11.07;;;;;;;;;;5107398;28;20478;-74
2022/06/12 07:14:46;;;;;;;24.90;11.63;;;;;;;;;;5106888;28;20470;-74
2022/06/12 07:17:14;;;;;;;23.27;11.37;;;;;;;;;;5107328;28;20505;-72
2022/06/12 07:19:41;;;;;;;21.87;11.63;;;;;;;;;;5107711;28;20453;-72
2022/06/12 07:22:08;;;;;;;26.00;11.57;;;;;;;;;;5107122;28;20472;-72
2022/06/12 07:24:36;;;;;;;25.50;10.70;;;;;;;;;;5107397;28;20469;-72
2022/06/12 07:27:03;;;;;;;27.30;11.23;;;;;;;;;;5107273;28;20476;-72
2022/06/12 07:29:31;;;;;;;26.53;13.23;;;;;;;;;;5106814;28;20475;-72
2022/06/12 07:32:01;;;;;;;24.63;11.77;;;;;;;;;;5086291;28;20499;-72
2022/06/12 07:34:29;;;;;;;27.30;12.83;;;;;;;;;;5086811;28;20466;-72
2022/06/12 07:36:56;;;;;;;22.00;11.17;;;;;;;;;;5085910;28;20564;-73
2022/06/12 07:39:25;;;;;;;22.33;11.03;;;;;;;;;;5086749;28;20466;-72
2022/06/12 07:41:53;;;;;;;26.37;12.30;;;;;;;;;;5081237;28;20500;-72
2022/06/12 07:44:23;;;;;;;25.27;12.00;;;;;;;;;;5072612;28;20472;-74
2022/06/12 07:46:50;;;;;;;25.73;13.00;;;;;;;;;;5073142;28;20482;-75
2022/06/12 07:49:20;;;;;;;26.73;10.20;;;;;;;;;;5072911;28;20844;-73
2022/06/12 07:51:48;;;;;;;27.33;11.63;;;;;;;;;;5073045;28;20512;-72
2022/06/12 07:54:16;;;;;;;28.73;11.87;;;;;;;;;;5072594;28;21051;-73
2022/06/12 07:56:43;;;;;;;23.90;12.07;;;;;;;;;;5072936;28;20484;-73
2022/06/12 07:59:11;;;;;;;28.10;12.10;;;;;;;;;;5072517;28;20467;-73
2022/06/12 08:01:38;;;;;;;27.20;11.80;;;;;;;;;;5072823;28;20847;-74
2022/06/12 08:04:07;;;;;;;24.53;11.57;;;;;;;;;;5072468;28;20479;-72
2022/06/12 08:06:36;;;;;;;24.77;13.77;;;;;;;;;;5072684;28;20478;-73
2022/06/12 08:09:05;;;;;;;28.37;12.47;;;;;;;;;;5072662;28;21027;-73
2022/06/12 08:11:34;;;;;;;23.83;12.70;;;;;;;;;;5072536;28;20506;-72
2022/06/12 08:14:01;;;;;;;30.13;14.57;;;;;;;;;;5071906;28;20835;-73
2022/06/12 08:16:29;;;;;;;23.07;11.70;;;;;;;;;;5072381;28;20528;-75
2022/06/12 08:18:56;;;;;;;26.40;14.73;;;;;;;;;;5072437;28;20854;-72
2022/06/12 08:21:24;;;;;;;24.90;13.17;;;;;;;;;;5072406;28;20528;-71
2022/06/12 08:23:55;;;;;;;21.87;11.93;;;;;;;;;;5072638;28;20470;-72
2022/06/12 08:26:25;;;;;;;24.70;12.63;;;;;;;;;;5071889;28;20474;-72
2022/06/12 08:28:54;;;;;;;30.90;13.60;;;;;;;;;;5071862;28;20478;-70
2022/06/12 08:31:23;;;;;;;26.83;14.03;;;;;;;;;;5071929;28;20506;-72
2022/06/12 08:33:53;;;;;;;23.90;12.17;;;;;;;;;;5071184;28;20467;-71
2022/06/12 08:36:21;;;;;;;24.37;11.33;;;;;;;;;;5071735;28;20837;-73
2022/06/12 08:38:49;;;;;;;26.27;10.60;;;;;;;;;;5071086;28;20474;-76
2022/06/12 08:41:21;;;;;;;21.13;10.53;;;;;;;;;;5068967;28;20871;-74
2022/06/12 08:43:53;;;;;;;20.40;11.13;;;;;;;;;;5070983;28;20490;-73
2022/06/12 08:46:24;;;;;;;23.40;10.33;;;;;;;;;;5071658;28;20574;-72
2022/06/12 08:48:55;;;;;;;24.23;9.93;;;;;;;;;;5072147;28;20471;-73
2022/06/12 08:51:26;;;;;;;22.20;9.90;;;;;;;;;;5071491;28;20495;-73
2022/06/12 08:53:57;;;;;;;20.57;10.13;;;;;;;;;;5070969;28;20834;-73
2022/06/12 08:56:30;;;;;;;21.33;9.90;;;;;;;;;;5072056;28;20491;-73
2022/06/12 08:59:06;;;;;;;26.13;10.87;;;;;;;;;;5071230;28;20474;-72
2022/06/12 09:01:34;;;;;;;21.03;9.77;;;;;;;;;;5071766;28;20563;-73
2022/06/12 09:04:01;;;;;;;25.27;9.70;;;;;;;;;;5071733;28;20470;-74
2022/06/12 09:06:37;;;;;;;19.60;9.73;;;;;;;;;;5071740;28;20814;-73
2022/06/12 09:09:10;;;;;;;23.37;8.60;;;;;;;;;;5071738;28;20531;-73
2022/06/12 09:11:43;;;;;;;18.77;8.50;;;;;;;;;;5071649;28;20499;-74
2022/06/12 09:14:18;;;;;;;24.30;9.43;;;;;;;;;;5071037;28;20468;-74
2022/06/12 09:16:50;;;;;;;21.43;9.87;;;;;;;;;;5071512;28;20471;-74
2022/06/12 09:19:19;;;;;;;20.50;9.53;;;;;;;;;;5071394;28;20470;-73
2022/06/12 09:21:51;;;;;;;22.43;10.27;;;;;;;;;;5071240;28;20478;-74
2022/06/12 09:24:29;;;;;;;20.27;9.40;;;;;;;;;;5071203;28;20474;-73
2022/06/12 09:27:04;;;;;;;23.43;9.37;;;;;;;;;;5071345;28;20511;-74
2022/06/12 09:29:35;;;;;;;20.83;9.10;;;;;;;;;;5070645;28;20468;-74
2022/06/12 09:32:10;;;;;;;21.83;9.50;;;;;;;;;;5070636;28;20498;-76
2022/06/12 09:34:39;;;;;;;19.70;9.47;;;;;;;;;;5070419;28;20525;-74
2022/06/12 09:40:03;;;;;;;21.17;9.07;;;;;;;;;;5061343;28;20570;-75
2022/06/12 09:42:37;;;;;;;22.70;9.90;;;;;;;;;;5070629;28;21009;-74
2022/06/12 09:45:08;;;;;;;25.23;10.43;;;;;;;;;;5070188;28;20467;-75
2022/06/12 09:47:41;;;;;;;19.37;8.77;;;;;;;;;;5070696;28;20467;-73
2022/06/12 09:50:10;;;;;;;25.13;10.30;;;;;;;;;;5060476;28;20468;-74
2022/06/12 09:52:55;;;;;;;21.23;10.00;;;;;;;;;;5070476;28;20502;-73
2022/06/12 09:55:25;;;;;;;21.27;10.00;;;;;;;;;;5070207;28;20455;-74
2022/06/12 09:57:57;;;;;;;21.60;10.20;;;;;;;;;;5070003;28;20985;-74
2022/06/12 10:00:30;;;;;;;23.23;9.70;;;;;;;;;;5059215;28;20469;-74
2022/06/12 10:03:05;;;;;;;21.40;10.63;;;;;;;;;;5070533;28;20844;-75
2022/06/12 10:05:38;;;;;;;22.43;9.67;;;;;;;;;;5070224;28;20565;-74
2022/06/12 10:08:07;;;;;;;20.90;9.00;;;;;;;;;;5070621;28;20462;-73
2022/06/12 10:10:39;;;;;;;22.10;10.07;;;;;;;;;;5070690;28;20471;-75
2022/06/12 10:13:11;;;;;;;21.50;10.70;;;;;;;;;;5068747;28;20518;-74
2022/06/12 10:15:40;;;;;;;21.40;8.80;;;;;;;;;;5068700;28;20475;-74
2022/06/12 10:18:10;;;;;;;20.70;10.20;;;;;;;;;;5069696;28;20474;-74
2022/06/12 10:20:40;;;;;;;24.67;9.40;;;;;;;;;;5070413;28;20841;-75
2022/06/12 10:23:08;;;;;;;17.40;8.37;;;;;;;;;;5067061;28;21020;-74
2022/06/12 10:25:36;;;;;;;18.10;8.90;;;;;;;;;;5065976;28;21021;-75
2022/06/12 10:28:05;;;;;;;19.93;9.17;;;;;;;;;;5064829;28;20476;-76
2022/06/12 10:30:37;;;;;;;17.80;8.77;;;;;;;;;;5065503;28;20868;-75
2022/06/12 10:33:18;;;;;;;27.00;9.10;;;;;;;;;;5065517;28;20886;-75
2022/06/12 10:35:49;;;;;;;18.33;8.63;;;;;;;;;;5065763;28;20486;-75
2022/06/12 10:38:17;;;;;;;19.30;8.57;;;;;;;;;;5065762;28;20470;-75
2022/06/12 10:40:55;;;;;;;19.43;7.50;;;;;;;;;;5065784;28;20489;-73
2022/06/12 10:43:26;;;;;;;25.60;9.07;;;;;;;;;;5069407;28;20481;-74
2022/06/12 10:46:03;;;;;;;18.70;8.87;;;;;;;;;;5069992;28;20480;-74
2022/06/12 10:48:34;;;;;;;16.20;7.13;;;;;;;;;;5070221;28;20469;-76
2022/06/12 10:51:03;;;;;;;18.50;8.90;;;;;;;;;;5069493;28;20471;-76
2022/06/12 10:53:31;;;;;;;17.77;6.80;;;;;;;;;;5069698;28;20469;-76
2022/06/12 10:56:01;;;;;;;17.03;7.60;;;;;;;;;;5069647;28;21001;-77
2022/06/12 10:58:47;;;;;;;18.67;7.07;;;;;;;;;;5069621;28;21010;-76
2022/06/12 11:01:22;;;;;;;19.00;6.87;;;;;;;;;;5069991;28;20999;-74
2022/06/12 11:03:57;;;;;;;18.40;7.17;;;;;;;;;;5070074;28;20493;-74
2022/06/12 11:06:27;;;;;;;17.53;6.47;;;;;;;;;;5070068;28;20505;-71
2022/06/12 11:09:08;;;;;;;17.47;6.60;;;;;;;;;;5068408;28;20556;-73
2022/06/12 11:11:40;;;;;;;17.00;6.37;;;;;;;;;;5065865;28;20498;-75
2022/06/12 11:14:19;;;;;;;16.60;6.83;;;;;;;;;;5064799;28;20478;-74
2022/06/12 11:16:54;;;;;;;17.43;6.43;;;;;;;;;;5066187;28;21078;-74
2022/06/12 11:19:26;;;;;;;20.43;6.83;;;;;;;;;;5069604;28;20856;-75
2022/06/12 11:21:57;;;;;;;17.90;7.37;;;;;;;;;;5069103;28;20476;-75
2022/06/12 11:24:27;;;;;;;21.40;7.37;;;;;;;;;;5069334;28;20542;-75
2022/06/12 11:27:03;;;;;;;18.80;7.20;;;;;;;;;;5069004;28;21530;-75
2022/06/12 11:29:37;;;;;;;18.03;6.20;;;;;;;;;;5069237;28;20509;-75
2022/06/12 11:32:12;;;;;;;20.87;6.63;;;;;;;;;;5068328;28;21066;-75
2022/06/12 11:34:53;;;;;;;19.00;6.47;;;;;;;;;;5069219;28;20466;-75
2022/06/12 11:37:29;;;;;;;19.23;6.17;;;;;;;;;;5068977;28;20489;-75
2022/06/12 11:40:01;;;;;;;16.57;5.93;;;;;;;;;;5068736;28;20484;-75
2022/06/12 11:42:38;;;;;;;17.97;6.00;;;;;;;;;;5068509;28;20477;-75
2022/06/12 11:45:15;;;;;;;17.93;5.37;;;;;;;;;;5068888;28;20473;-76
2022/06/12 11:47:54;;;;;;;16.00;5.97;;;;;;;;;;5068973;28;20472;-75
2022/06/12 11:50:26;;;;;;;16.97;6.10;;;;;;;;;;5069754;28;20805;-74
2022/06/12 11:52:59;;;;;;;20.57;6.43;;;;;;;;;;5073008;28;20501;-75
2022/06/12 11:55:31;;;;;;;20.93;6.00;;;;;;;;;;5072821;28;20470;-75
2022/06/12 11:58:05;;;;;;;19.07;6.10;;;;;;;;;;5072116;28;20863;-76
2022/06/12 12:12:09;;;;;;;18.87;6.40;;;;;;;;;;5087708;28;21043;-74
2022/06/12 12:14:39;;;;;;;19.40;7.50;;;;;;;;;;5079579;28;20473;-77
2022/06/12 12:17:10;;;;;;;17.33;5.90;;;;;;;;;;5079652;28;20523;-74
2022/06/12 12:19:40;;;;;;;18.47;4.60;;;;;;;;;;5067414;28;20494;-74
2022/06/12 12:22:10;;;;;;;16.53;4.70;;;;;;;;;;5067394;28;20480;-75
2022/06/12 12:24:46;;;;;;;16.30;4.30;;;;;;;;;;5067391;28;20467;-74
2022/06/12 12:27:26;;;;;;;20.13;5.50;;;;;;;;;;5067380;28;20842;-73
2022/06/12 12:29:54;;;;;;;18.43;6.13;;;;;;;;;;5067009;28;20856;-71
2022/06/12 12:32:22;;;;;;;17.30;6.07;;;;;;;;;;5067378;28;20467;-74
2022/06/12 12:34:51;;;;;;;18.80;6.70;;;;;;;;;;5067294;28;20471;-73
2022/06/12 12:43:02;;;;;;;16.23;5.90;;;;;;;;;;5067373;28;20977;-77
2022/06/12 12:45:31;;;;;;;18.40;7.60;;;;;;;;;;5066672;28;20542;-74
2022/06/12 12:47:59;;;;;;;18.80;6.90;;;;;;;;;;5077754;28;20534;-74
2022/06/12 12:50:27;;;;;;;20.60;7.07;;;;;;;;;;5087051;28;20478;-76
2022/06/12 12:52:57;;;;;;;19.43;7.37;;;;;;;;;;5087067;28;20474;-76
2022/06/12 12:55:26;;;;;;;21.33;7.00;;;;;;;;;;5087351;28;20851;-76
2022/06/12 12:57:56;;;;;;;16.60;6.27;;;;;;;;;;5086743;28;20477;-74
2022/06/12 13:00:25;;;;;;;17.90;6.83;;;;;;;;;;5086171;28;20505;-73
2022/06/12 13:02:54;;;;;;;19.00;6.70;;;;;;;;;;5086871;28;20523;-75
2022/06/12 13:05:22;;;;;;;17.57;6.23;;;;;;;;;;5086787;28;20474;-74
2022/06/12 13:07:58;;;;;;;17.27;6.10;;;;;;;;;;5086784;28;20466;-77
2022/06/12 13:10:32;;;;;;;14.97;5.87;;;;;;;;;;5047155;28;20532;-79
2022/06/12 13:13:09;;;;;;;17.27;5.90;;;;;;;;;;5033889;28;20433;-75
2022/06/12 13:15:45;;;;;;;15.27;5.40;;;;;;;;;;5033433;28;20443;-75
2022/06/12 13:18:19;;;;;;;16.70;6.23;;;;;;;;;;5033802;28;20453;-78
2022/06/12 13:20:52;;;;;;;16.13;5.50;;;;;;;;;;5033508;28;21009;-74
2022/06/12 13:23:27;;;;;;;17.40;5.43;;;;;;;;;;5033682;28;20502;-75
2022/06/12 13:25:55;;;;;;;14.63;4.97;;;;;;;;;;5033259;28;20440;-74
2022/06/12 13:28:26;;;;;;;17.50;6.50;;;;;;;;;;5033297;28;20445;-73
2022/06/12 13:30:54;;;;;;;17.70;5.70;;;;;;;;;;5033544;28;20434;-74
2022/06/12 13:33:23;;;;;;;15.07;5.30;;;;;;;;;;5033293;28;20963;-73
2022/06/12 13:35:52;;;;;;;17.10;5.50;;;;;;;;;;5032954;28;20919;-72
2022/06/12 13:38:21;;;;;;;15.00;5.10;;;;;;;;;;5033236;28;20446;-74
2022/06/12 13:40:54;;;;;;;16.10;5.17;;;;;;;;;;5033029;28;20489;-75
2022/06/12 13:43:23;;;;;;;16.33;5.03;;;;;;;;;;5032821;28;20440;-76
2022/06/12 13:45:54;;;;;;;16.40;5.37;;;;;;;;;;5032707;28;20445;-76
2022/06/12 13:48:23;;;;;;;14.90;4.97;;;;;;;;;;5032833;28;20822;-76
2022/06/12 13:50:55;;;;;;;14.37;5.20;;;;;;;;;;5032896;28;20453;-76
2022/06/12 13:53:23;;;;;;;16.73;5.10;;;;;;;;;;5032721;28;20983;-76
2022/06/12 13:55:52;;;;;;;14.37;4.83;;;;;;;;;;5033103;28;20498;-77
2022/06/12 13:58:21;;;;;;;16.60;5.07;;;;;;;;;;5032891;28;20429;-76
2022/06/12 14:00:49;;;;;;;16.57;4.90;;;;;;;;;;5032312;28;20481;-77
2022/06/12 14:03:24;;;;;;;17.67;5.20;;;;;;;;;;5032855;28;20443;-76
2022/06/12 14:05:53;;;;;;;14.40;4.27;;;;;;;;;;5032533;28;20474;-75
2022/06/12 14:08:21;;;;;;;16.63;4.70;;;;;;;;;;5032222;28;20949;-75
2022/06/12 14:10:49;;;;;;;19.10;4.37;;;;;;;;;;5032421;28;20502;-74
2022/06/12 14:13:20;;;;;;;22.33;4.03;;;;;;;;;;5032677;28;20446;-75
2022/06/12 14:15:48;;;;;;;14.40;3.80;;;;;;;;;;5032434;28;20455;-80
2022/06/12 14:18:27;;;;;;;27.10;4.20;;;;;;;;;;5032355;28;20458;-76
2022/06/12 14:21:00;;;;;;;15.33;3.80;;;;;;;;;;5032269;28;20579;-76
2022/06/12 14:23:28;;;;;;;16.00;3.47;;;;;;;;;;5031417;28;20515;-77
2022/06/12 14:25:59;;;;;;;15.97;4.00;;;;;;;;;;5032365;28;20887;-76
2022/06/12 14:28:28;;;;;;;19.23;3.70;;;;;;;;;;5032144;28;20449;-76
2022/06/12 14:31:04;;;;;;;17.47;3.57;;;;;;;;;;5032458;28;20467;-79
2022/06/12 14:33:36;;;;;;;24.37;3.73;;;;;;;;;;5032162;28;20440;-75
2022/06/12 14:36:06;;;;;;;15.37;2.63;;;;;;;;;;5032394;28;20460;-77
2022/06/12 14:38:34;;;;;;;12.77;3.37;;;;;;;;;;5032157;28;20830;-78
2022/06/12 14:41:01;;;;;;;16.33;3.20;;;;;;;;;;5032072;28;20495;-77
2022/06/12 14:43:30;;;;;;;12.47;2.93;;;;;;;;;;5031967;28;21012;-73
2022/06/12 14:46:00;;;;;;;14.70;3.50;;;;;;;;;;5031559;28;20530;-73
2022/06/12 14:48:28;;;;;;;14.07;3.43;;;;;;;;;;5031236;28;20469;-73
2022/06/12 14:50:58;;;;;;;13.00;3.20;;;;;;;;;;5031419;28;20473;-74
2022/06/12 14:53:26;;;;;;;13.33;2.53;;;;;;;;;;5067027;28;20471;-73
2022/06/12 14:55:54;;;;;;;16.20;3.40;;;;;;;;;;5070965;28;20490;-74
2022/06/12 14:58:29;;;;;;;13.20;3.27;;;;;;;;;;5071451;28;20471;-74
2022/06/12 15:00:57;;;;;;;13.90;3.67;;;;;;;;;;5070597;28;20862;-74
2022/06/12 15:03:25;;;;;;;15.27;4.40;;;;;;;;;;5070687;28;20467;-72
2022/06/12 15:05:53;;;;;;;13.07;3.00;;;;;;;;;;5070723;28;20478;-75
2022/06/12 15:08:22;;;;;;;13.53;2.57;;;;;;;;;;5071041;28;20486;-73
2022/06/12 15:10:50;;;;;;;12.63;2.93;;;;;;;;;;5070712;28;20494;-74
2022/06/12 15:13:19;;;;;;;11.77;2.60;;;;;;;;;;5070281;28;20992;-73
2022/06/12 15:15:47;;;;;;;11.97;2.80;;;;;;;;;;5070534;28;20486;-73
2022/06/12 15:18:15;;;;;;;16.47;2.93;;;;;;;;;;5070165;28;20539;-74
2022/06/12 15:20:44;;;;;;;13.40;3.23;;;;;;;;;;5070452;28;20506;-74